sensor_id;sensor_type;location;lat;lon;timestamp;P1;durP1;ratioP1;P2;durP2;ratioP2
28009;SDS011;15334;49.494;8.410;2022-07-29T00:00:01;3.17;;;1.50;;
28009;SDS011;15334;49.494;8.410;2022-07-29T00:02:30;4.40;;;1.90;;
28009;SDS011;15334;49.494;8.410;2022-07-29T00:04:58;4.35;;;1.80;;
28009;SDS011;15334;49.494;8.410;2022-07-29T00:07:27;3.20;;;1.73;;
28009;SDS011;15334;49.494;8.410;2022-07-29T00:09:55;5.10;;;1.95;;
28009;SDS011;15334;49.494;8.410;2022-07-29T00:12:24;2.28;;;1.67;;
28009;SDS011;15334;49.494;8.410;2022-07-29T00:14:55;2.60;;;1.50;;
28009;SDS011;15334;49.494;8.410;2022-07-29T00:17:23;4.78;;;1.90;;
28009;SDS011;15334;49.494;8.410;2022-07-29T00:19:52;3.83;;;2.00;;
28009;SDS011;15334;49.494;8.410;2022-07-29T00:22:20;4.50;;;1.95;;
28009;SDS011;15334;49.494;8.410;2022-07-29T00:24:48;5.90;;;1.83;;
28009;SDS011;15334;49.494;8.410;2022-07-29T00:27:16;6.25;;;2.17;;
28009;SDS011;15334;49.494;8.410;2022-07-29T00:29:46;3.45;;;2.03;;
28009;SDS011;15334;49.494;8.410;2022-07-29T00:32:14;2.88;;;1.55;;
28009;SDS011;15334;49.494;8.410;2022-07-29T00:34:42;5.28;;;2.00;;
28009;SDS011;15334;49.494;8.410;2022-07-29T00:37:28;4.60;;;1.63;;
28009;SDS011;15334;49.494;8.410;2022-07-29T00:39:56;6.55;;;2.03;;
28009;SDS011;15334;49.494;8.410;2022-07-29T00:42:26;2.53;;;1.58;;
28009;SDS011;15334;49.494;8.410;2022-07-29T00:44:56;3.13;;;1.80;;
28009;SDS011;15334;49.494;8.410;2022-07-29T00:47:24;4.03;;;2.00;;
28009;SDS011;15334;49.494;8.410;2022-07-29T00:49:52;4.63;;;1.98;;
28009;SDS011;15334;49.494;8.410;2022-07-29T21:03:33;3.33;;;2.30;;
28009;SDS011;15334;49.494;8.410;2022-07-29T21:06:01;4.78;;;2.58;;
28009;SDS011;15334;49.494;8.410;2022-07-29T21:08:29;6.07;;;2.17;;
28009;SDS011;15334;49.494;8.410;2022-07-29T21:10:58;4.93;;;2.58;;
28009;SDS011;15334;49.494;8.410;2022-07-29T21:13:26;5.28;;;2.80;;
28009;SDS011;15334;49.494;8.410;2022-07-29T21:15:54;4.22;;;2.55;;
28009;SDS011;15334;49.494;8.410;2022-07-29T21:18:29;4.22;;;2.40;;
28009;SDS011;15334;49.494;8.410;2022-07-29T21:21:06;5.60;;;2.70;;
28009;SDS011;15334;49.494;8.410;2022-07-29T21:23:51;6.65;;;2.58;;
28009;SDS011;15334;49.494;8.410;2022-07-29T21:26:19;5.38;;;2.95;;
28009;SDS011;15334;49.494;8.410;2022-07-29T21:28:50;4.55;;;2.65;;
28009;SDS011;15334;49.494;8.410;2022-07-29T21:31:45;6.57;;;2.30;;
28009;SDS011;15334;49.494;8.410;2022-07-29T21:34:16;4.47;;;2.30;;
28009;SDS011;15334;49.494;8.410;2022-07-29T21:37:12;6.47;;;2.63;;
28009;SDS011;15334;49.494;8.410;2022-07-29T21:40:07;5.05;;;2.60;;
28009;SDS011;15334;49.494;8.410;2022-07-29T21:42:43;4.32;;;2.35;;
28009;SDS011;15334;49.494;8.410;2022-07-29T21:45:19;3.83;;;2.20;;
28009;SDS011;15334;49.494;8.410;2022-07-29T21:48:12;3.72;;;2.20;;
28009;SDS011;15334;49.494;8.410;2022-07-29T21:50:40;5.75;;;2.28;;
28009;SDS011;15334;49.494;8.410;2022-07-29T21:53:17;4.00;;;2.70;;
28009;SDS011;15334;49.494;8.410;2022-07-29T21:56:03;5.68;;;2.53;;
28009;SDS011;15334;49.494;8.410;2022-07-29T21:58:59;2.85;;;1.95;;
28009;SDS011;15334;49.494;8.410;2022-07-29T22:01:45;5.18;;;2.45;;
28009;SDS011;15334;49.494;8.410;2022-07-29T22:04:45;4.43;;;2.35;;
28009;SDS011;15334;49.494;8.410;2022-07-29T22:07:20;4.57;;;2.63;;
28009;SDS011;15334;49.494;8.410;2022-07-29T22:09:55;6.32;;;2.60;;
28009;SDS011;15334;49.494;8.410;2022-07-29T22:12:34;6.00;;;2.75;;
28009;SDS011;15334;49.494;8.410;2022-07-29T22:15:22;5.25;;;2.70;;
28009;SDS011;15334;49.494;8.410;2022-07-29T22:18:15;12.50;;;3.05;;
28009;SDS011;15334;49.494;8.410;2022-07-29T22:21:11;4.13;;;2.70;;
28009;SDS011;15334;49.494;8.410;2022-07-29T22:23:55;4.13;;;2.20;;
28009;SDS011;15334;49.494;8.410;2022-07-29T22:26:36;4.93;;;2.40;;
28009;SDS011;15334;49.494;8.410;2022-07-29T22:29:12;3.97;;;2.20;;
28009;SDS011;15334;49.494;8.410;2022-07-29T22:31:56;6.93;;;3.08;;
28009;SDS011;15334;49.494;8.410;2022-07-29T22:34:39;3.67;;;2.20;;
28009;SDS011;15334;49.494;8.410;2022-07-29T22:37:16;4.47;;;2.40;;
28009;SDS011;15334;49.494;8.410;2022-07-29T22:40:01;4.55;;;2.60;;
28009;SDS011;15334;49.494;8.410;2022-07-29T22:42:36;5.50;;;3.15;;
28009;SDS011;15334;49.494;8.410;2022-07-29T22:45:12;5.18;;;2.85;;
28009;SDS011;15334;49.494;8.410;2022-07-29T22:48:06;7.95;;;3.03;;
28009;SDS011;15334;49.494;8.410;2022-07-29T22:50:55;5.28;;;2.78;;
28009;SDS011;15334;49.494;8.410;2022-07-29T22:53:32;5.13;;;2.80;;
28009;SDS011;15334;49.494;8.410;2022-07-29T22:56:19;3.60;;;2.63;;
28009;SDS011;15334;49.494;8.410;2022-07-29T22:59:29;4.22;;;2.50;;
28009;SDS011;15334;49.494;8.410;2022-07-29T23:02:02;6.90;;;2.60;;
28009;SDS011;15334;49.494;8.410;2022-07-29T23:04:39;6.75;;;3.42;;
28009;SDS011;15334;49.494;8.410;2022-07-29T23:08:09;5.43;;;2.55;;
28009;SDS011;15334;49.494;8.410;2022-07-29T23:11:18;6.07;;;2.83;;
28009;SDS011;15334;49.494;8.410;2022-07-29T23:13:51;6.63;;;3.00;;
28009;SDS011;15334;49.494;8.410;2022-07-29T23:16:20;5.05;;;2.55;;
28009;SDS011;15334;49.494;8.410;2022-07-29T23:18:52;4.43;;;2.20;;
28009;SDS011;15334;49.494;8.410;2022-07-29T23:21:25;5.82;;;2.90;;
28009;SDS011;15334;49.494;8.410;2022-07-29T23:23:54;6.10;;;3.15;;
28009;SDS011;15334;49.494;8.410;2022-07-29T23:26:22;5.50;;;2.50;;
28009;SDS011;15334;49.494;8.410;2022-07-29T23:28:50;5.82;;;3.00;;
28009;SDS011;15334;49.494;8.410;2022-07-29T23:31:18;7.85;;;3.28;;
28009;SDS011;15334;49.494;8.410;2022-07-29T23:33:47;8.38;;;3.45;;
28009;SDS011;15334;49.494;8.410;2022-07-29T23:36:15;9.30;;;3.35;;
28009;SDS011;15334;49.494;8.410;2022-07-29T23:38:45;5.00;;;2.92;;
28009;SDS011;15334;49.494;8.410;2022-07-29T23:41:13;4.13;;;2.42;;
28009;SDS011;15334;49.494;8.410;2022-07-29T23:43:41;6.22;;;3.17;;
28009;SDS011;15334;49.494;8.410;2022-07-29T23:46:09;4.85;;;2.90;;
28009;SDS011;15334;49.494;8.410;2022-07-29T23:48:40;5.15;;;2.65;;
28009;SDS011;15334;49.494;8.410;2022-07-29T23:51:09;3.83;;;2.80;;
28009;SDS011;15334;49.494;8.410;2022-07-29T23:53:37;4.40;;;2.80;;
28009;SDS011;15334;49.494;8.410;2022-07-29T23:56:19;6.30;;;2.83;;
28009;SDS011;15334;49.494;8.410;2022-07-29T23:58:47;3.33;;;2.15;;
